EW7659 Weather Reports


Display with metric or nautical units.
time (UTC)temp
F
wind
direction
speed
MPH
gust
MPH
rain 1hr
in
rain 24hr
in
rain mn
in
humidity
%
barometer
mb
20260906223808 92 76 0.0 0.0 0.00 0.74 0.74 67 1005.3
20260906223525 91 76 0.0 0.0 0.00 0.74 0.74 75 1005.4
20260906222806 90 76 0.0 0.0 0.00 0.74 0.74 78 1005.5
20260906222306 88 76 0.0 0.0 0.00 0.74 0.74 81 1005.6
20260906221805 87 76 0.0 0.0 0.00 0.74 0.74 78 1005.6
20260906221304 86 76 0.0 0.0 0.00 0.74 0.74 83 1005.6
20260906221031 86 76 0.0 0.0 0.02 0.74 0.74 85 1005.7
20260906220305 85 76 0.0 0.0 0.02 0.74 0.74 83 1005.8
20260906215808 85 76 0.0 0.0 0.06 0.74 0.74 82 1005.7
20260906215318 85 76 0.0 0.0 0.18 0.74 0.74 85 1005.7
20260906214806 85 76 0.0 0.0 0.32 0.74 0.74 82 1005.7
20260906214303 85 76 0.0 0.0 0.43 0.74 0.74 85 1005.7
20260906213754 84 76 0.0 0.0 0.59 0.74 0.74 82 1005.7
20260906213252 83 76 0.0 0.0 0.74 0.74 0.74 82 1005.8
20260906212751 83 76 0.0 0.0 0.74 0.74 0.74 82 1005.9
20260906212249 83 76 0.0 0.0 0.74 0.74 0.74 77 1005.9
20260906211747 82 76 0.0 2.0 0.74 0.74 0.74 70 1006.0
20260906211246 82 76 0.0 2.0 0.74 0.74 0.73 72 1006.1
20260906210743 80 76 0.0 6.0 0.72 0.72 0.72 72 1006.1
20260906210243 79 69 0.0 6.0 0.72 0.72 0.72 79 1006.2
20260906205742 79 169 0.0 4.0 0.67 0.67 0.66 79 1006.6
20260906205243 80 169 0.0 4.0 0.55 0.55 0.54 76 1007.6
20260906204741 81 42 1.0 14.0 0.41 0.41 0.40 73 1007.9
20260906204241 81 40 5.0 24.0 0.31 0.31 0.30 69 1007.6
20260906204003 85 326 4.0 24.0 0.14 0.14 0.12 62 1007.6
20260906203240 94 321 1.0 21.0 0.00 0.00 0.00 47 1006.6
20260906202740 96 325 0.0 4.0 0.00 0.00 0.00 43 1006.2
20260906202236 98 306 0.0 3.0 0.00 0.00 0.00 39 1006.2
20260906201734 99 355 0.0 1.0 0.00 0.00 0.00 35 1006.2
20260906201234 100 0 0.0 1.0 0.00 0.00 0.00 34 1006.2
20260906200734 100 345 0.0 3.0 0.00 0.00 0.00 33 1006.3
20260906200233 102 46 0.0 3.0 0.00 0.00 0.00 32 1006.3
20260906195725 103 140 0.0 3.0 0.00 0.00 0.00 31 1006.3
20260906195220 104 138 0.0 6.0 0.00 0.00 0.00 31 1006.4
20260906194720 104 153 0.0 6.0 0.00 0.00 0.00 30 1006.4
20260906194221 105 153 0.0 0.0 0.00 0.00 0.00 29 1006.4
20260906193721 104 153 0.0 0.0 0.00 0.00 0.00 29 1006.5
20260906193219 104 153 0.0 0.0 0.00 0.00 0.00 29 1006.6
20260906192716 103 154 0.0 0.0 0.00 0.00 0.00 30 1006.6
20260906192436 101 154 0.0 0.0 0.00 0.00 0.00 31 1006.7
20260906192157 101 153 0.0 0.0 0.00 0.00 0.00 31 1006.7
20260906191216 101 153 0.0 0.0 0.00 0.00 0.00 33 1006.7
20260906190942 101 153 0.0 0.0 0.00 0.00 0.00 33 1006.8
20260906190214 101 153 0.0 0.0 0.00 0.00 0.00 33 1006.9
20260906185715 101 153 0.0 0.0 0.00 0.00 0.00 32 1006.9
20260906185214 101 153 0.0 0.0 0.00 0.00 0.00 32 1006.9
20260906184712 102 153 0.0 0.0 0.00 0.00 0.00 33 1007.0
20260906184432 102 153 0.0 0.0 0.00 0.00 0.00 32 1007.0
20260906184156 102 153 0.0 0.0 0.00 0.00 0.00 31 1007.2
20260906183208 103 153 0.0 0.0 0.00 0.00 0.00 31 1007.3
20260906183158 104 153 0.0 1.0 0.00 0.00 0.00 31 1007.4
20260906182206 103 153 0.0 1.0 0.00 0.00 0.00 32 1007.4
20260906181706 103 152 0.0 7.0 0.00 0.00 0.00 33 1007.5
20260906181428 103 153 0.0 7.0 0.00 0.00 0.00 32 1007.6
20260906180706 102 125 0.0 2.0 0.00 0.00 0.00 33 1007.6
20260906180206 102 125 0.0 2.0 0.00 0.00 0.00 34 1007.8
20260906175932 102 125 0.0 2.0 0.00 0.00 0.00 34 1007.9
20260906175655 102 144 0.0 2.0 0.00 0.00 0.00 33 1008.0
20260906174705 102 148 0.0 1.0 0.00 0.00 0.00 34 1008.2
20260906174205 102 148 0.0 0.0 0.00 0.00 0.00 33 1008.3
20260906173705 103 150 0.0 0.0 0.00 0.00 0.00 33 1008.4
20260906173205 102 159 0.0 0.0 0.00 0.00 0.00 33 1008.6
20260906172705 102 159 0.0 0.0 0.00 0.00 0.00 34 1008.7
20260906172205 102 159 0.0 0.0 0.00 0.00 0.00 34 1008.7
20260906171929 101 173 0.0 0.0 0.00 0.00 0.00 37 1008.8
20260906171206 101 173 0.0 0.0 0.00 0.00 0.00 36 1008.9
20260906170705 101 171 0.0 0.0 0.00 0.00 0.00 36 1009.0
20260906170205 100 171 0.0 0.0 0.00 0.00 0.00 37 1009.0
20260906165705 101 171 0.0 0.0 0.00 0.00 0.00 37 1009.1
20260906165423 101 171 0.0 0.0 0.00 0.00 0.00 36 1009.1
20260906164930 100 171 0.0 0.0 0.00 0.00 0.00 38 1009.2
20260906164205 100 171 0.0 0.0 0.00 0.00 0.00 38 1009.2
20260906163706 100 171 0.0 0.0 0.00 0.00 0.00 38 1009.2
20260906163205 100 171 0.0 0.0 0.00 0.00 0.00 39 1009.1
20260906162925 99 171 0.0 0.0 0.00 0.00 0.00 40 1009.2
20260906162205 99 171 0.0 0.0 0.00 0.00 0.00 39 1009.2
20260906161706 98 171 0.0 0.0 0.00 0.00 0.00 41 1009.2
20260906161205 98 172 0.0 0.0 0.00 0.00 0.00 41 1009.3
20260906160926 98 171 0.0 0.0 0.00 0.00 0.00 42 1009.3
20260906160651 97 171 0.0 0.0 0.00 0.00 0.00 43 1009.3
20260906155925 96 171 0.0 0.0 0.00 0.00 0.00 44 1009.3
20260906155205 96 171 0.0 2.0 0.00 0.00 0.00 43 1009.3
20260906154705 96 171 0.0 2.0 0.00 0.00 0.00 43 1009.3
20260906154430 95 170 0.0 0.0 0.00 0.00 0.00 43 1009.3
20260906153705 95 170 0.0 1.0 0.00 0.00 0.00 44 1009.2
20260906153204 95 169 0.0 1.0 0.00 0.00 0.00 45 1009.2
20260906152704 94 169 0.0 1.0 0.00 0.00 0.00 45 1009.2
20260906152419 94 168 0.0 1.0 0.00 0.00 0.00 47 1009.3
20260906151700 94 168 0.0 0.0 0.00 0.00 0.00 45 1009.2
20260906151200 94 168 0.0 0.0 0.00 0.00 0.00 46 1009.2
20260906150700 93 168 0.0 0.0 0.00 0.00 0.00 47 1009.2
20260906150200 93 168 0.0 0.0 0.00 0.00 0.00 47 1009.3
20260906145700 93 168 0.0 0.0 0.00 0.00 0.00 47 1009.3
20260906145200 92 168 0.0 0.0 0.00 0.00 0.00 49 1009.2
20260906144658 91 168 0.0 0.0 0.00 0.00 0.00 50 1009.2
20260906144156 91 168 0.0 0.0 0.00 0.00 0.00 52 1009.3
20260906143655 90 168 0.0 1.0 0.00 0.00 0.00 52 1009.3
20260906143156 90 168 0.0 1.0 0.00 0.00 0.00 53 1009.3
20260906142656 89 168 0.0 0.0 0.00 0.00 0.00 54 1009.4
20260906142157 88 168 0.0 0.0 0.00 0.00 0.00 56 1009.3
20260906141917 88 168 0.0 0.0 0.00 0.00 0.00 58 1009.2
20260906141155 87 168 0.0 0.0 0.00 0.00 0.00 60 1009.2
20260906140920 86 168 0.0 0.0 0.00 0.00 0.00 60 1009.2
20260906140148 85 168 0.0 0.0 0.00 0.00 0.00 64 1009.3
20260906135648 84 168 0.0 0.0 0.00 0.00 0.00 66 1009.1
20260906135148 83 168 0.0 0.0 0.00 0.00 0.00 68 1009.1
20260906134911 82 168 0.0 0.0 0.00 0.00 0.00 69 1009.0
20260906134146 82 168 0.0 0.0 0.00 0.00 0.00 70 1009.0
20260906133644 81 168 0.0 0.0 0.00 0.00 0.00 71 1009.0
20260906133142 81 168 0.0 0.0 0.00 0.00 0.00 72 1008.9
20260906132642 80 168 0.0 0.0 0.00 0.00 0.00 73 1008.9
20260906132141 80 168 0.0 0.0 0.00 0.00 0.00 74 1008.8
20260906131642 79 168 0.0 0.0 0.00 0.00 0.00 76 1008.8
20260906131143 78 168 0.0 0.0 0.00 0.00 0.00 77 1008.8
20260906130909 78 168 0.0 0.0 0.00 0.00 0.00 78 1008.8
20260906130410 77 168 0.0 0.0 0.00 0.00 0.00 80 1008.7
20260906125640 76 168 0.0 0.0 0.00 0.00 0.00 82 1008.5
20260906125145 76 168 0.0 0.0 0.00 0.00 0.00 83 1008.5
20260906124641 75 168 0.0 0.0 0.00 0.00 0.00 84 1008.4
20260906124140 75 168 0.0 0.0 0.00 0.00 0.00 84 1008.4
20260906123639 74 168 0.0 0.0 0.00 0.00 0.00 83 1008.4
20260906123140 74 168 0.0 0.0 0.00 0.00 0.00 82 1008.3
20260906122904 74 168 0.0 0.0 0.00 0.00 0.00 82 1008.2
20260906122135 75 168 0.0 0.0 0.00 0.00 0.00 82 1008.2
20260906121637 75 168 0.0 0.0 0.00 0.00 0.00 82 1008.1
20260906121135 75 168 0.0 0.0 0.00 0.00 0.00 82 1008.1
20260906120635 75 168 0.0 0.0 0.00 0.00 0.00 81 1008.1
20260906120136 75 168 0.0 0.0 0.00 0.00 0.00 81 1008.0
20260906115635 75 168 0.0 0.0 0.00 0.00 0.00 80 1008.0
20260906115136 75 168 0.0 0.0 0.00 0.00 0.00 80 1008.0
20260906114635 76 168 0.0 0.0 0.00 0.00 0.00 80 1008.0
20260906114137 76 168 0.0 0.0 0.00 0.00 0.00 80 1008.0
20260906113633 76 168 0.0 0.0 0.00 0.00 0.00 79 1008.0
20260906113132 76 168 0.0 0.0 0.00 0.00 0.00 79 1008.0
20260906112633 76 168 0.0 0.0 0.00 0.00 0.00 79 1007.8
20260906112132 76 168 0.0 0.0 0.00 0.00 0.00 79 1007.8
20260906111633 76 168 0.0 0.0 0.00 0.00 0.00 79 1007.9
20260906111132 76 168 0.0 0.0 0.00 0.00 0.00 78 1008.0
20260906110633 76 168 0.0 0.0 0.00 0.00 0.00 78 1008.0
20260906110354 76 168 0.0 0.0 0.00 0.00 0.00 78 1007.9
20260906105634 76 168 0.0 0.0 0.00 0.00 0.00 78 1007.9
20260906105133 76 168 0.0 0.0 0.00 0.00 0.00 77 1007.9
20260906104631 77 168 0.0 0.0 0.00 0.00 0.00 77 1007.9
20260906104124 77 168 0.0 0.0 0.00 0.00 0.00 77 1007.9
20260906103619 77 168 0.0 0.0 0.00 0.00 0.00 76 1007.9
20260906103113 77 168 0.0 0.0 0.00 0.00 0.00 76 1007.9
20260906102606 77 168 0.0 0.0 0.00 0.00 0.00 76 1007.9
20260906102108 77 168 0.0 0.0 0.00 0.00 0.00 76 1007.9
20260906101608 77 168 0.0 0.0 0.00 0.00 0.00 76 1007.8
20260906101108 77 168 0.0 0.0 0.00 0.00 0.00 76 1007.8
20260906101053 77 168 0.0 0.0 0.00 0.00 0.00 76 1007.8
20260906100329 77 168 0.0 0.0 0.00 0.00 0.00 76 1007.9
20260906095605 77 168 0.0 0.0 0.00 0.00 0.00 77 1007.9
20260906095105 77 168 0.0 0.0 0.00 0.00 0.00 77 1007.9
20260906095054 77 168 0.0 0.0 0.00 0.00 0.00 76 1007.9
20260906094105 77 168 0.0 0.0 0.00 0.00 0.00 76 1007.8
20260906093605 77 168 0.0 0.0 0.00 0.00 0.00 75 1007.6
20260906093105 77 168 0.0 0.0 0.00 0.00 0.00 75 1007.6
20260906092606 77 168 0.0 0.0 0.00 0.00 0.00 75 1007.5
20260906092107 78 168 0.0 0.0 0.00 0.00 0.00 75 1007.4
20260906092059 78 168 0.0 0.0 0.00 0.00 0.00 74 1007.4
20260906091106 78 168 0.0 0.0 0.00 0.00 0.00 74 1007.4
20260906090605 78 168 0.0 0.0 0.00 0.00 0.00 73 1007.4
20260906090322 78 168 0.0 0.0 0.00 0.00 0.00 72 1007.4
20260906085605 78 168 0.0 0.0 0.00 0.00 0.00 72 1007.5
20260906085105 78 168 0.0 0.0 0.00 0.00 0.00 72 1007.5
20260906084604 79 168 0.0 0.0 0.00 0.00 0.00 71 1007.4
20260906084105 79 168 0.0 1.0 0.00 0.00 0.00 71 1007.4
20260906083840 79 168 0.0 1.0 0.00 0.00 0.00 71 1007.5
20260906083105 79 168 0.0 0.0 0.00 0.00 0.00 71 1007.3
20260906082605 79 168 0.0 0.0 0.00 0.00 0.00 71 1007.3
20260906082105 78 168 0.0 0.0 0.00 0.00 0.00 72 1007.4
20260906081605 78 168 0.0 0.0 0.00 0.00 0.00 73 1007.3
20260906081105 78 168 0.0 6.0 0.00 0.00 0.00 74 1007.3
20260906080605 78 168 0.0 6.0 0.00 0.00 0.00 74 1007.2
20260906080106 77 168 0.0 0.0 0.00 0.00 0.00 74 1007.0
20260906075829 77 168 0.0 0.0 0.00 0.00 0.00 74 1006.9
20260906075105 78 168 0.0 0.0 0.00 0.00 0.00 74 1006.9
20260906074604 78 168 0.0 0.0 0.00 0.00 0.00 74 1007.0
20260906074105 78 168 0.0 0.0 0.00 0.00 0.00 73 1006.9
20260906073558 78 168 0.0 0.0 0.00 0.00 0.00 73 1006.9
20260906073053 78 168 0.0 0.0 0.00 0.00 0.00 73 1007.0
20260906072551 78 168 0.0 0.0 0.00 0.00 0.00 73 1007.0
20260906072051 78 168 0.0 0.0 0.00 0.00 0.00 72 1007.0
20260906071550 78 168 0.0 0.0 0.00 0.00 0.00 72 1007.0
20260906071048 78 168 0.0 0.0 0.00 0.00 0.00 72 1007.0
20260906070546 78 168 0.0 0.0 0.00 0.00 0.00 71 1007.0
20260906070045 78 168 0.0 0.0 0.00 0.00 0.00 71 1007.0
20260906065808 79 168 0.0 0.0 0.00 0.00 0.00 70 1007.2
20260906065043 79 168 0.0 0.0 0.00 0.00 0.00 71 1007.0
20260906064541 79 168 0.0 0.0 0.00 0.00 0.00 70 1007.0
20260906064040 79 168 0.0 0.0 0.00 0.00 0.00 70 1007.0
20260906063757 79 168 0.0 0.0 0.00 0.00 0.00 70 1007.0
20260906063036 79 168 0.0 0.0 0.00 0.00 0.00 70 1007.2
20260906062535 79 168 0.0 0.0 0.00 0.00 0.00 70 1007.0
20260906062034 79 168 0.0 0.0 0.00 0.00 0.00 70 1007.0
20260906061533 79 168 0.0 0.0 0.00 0.00 0.00 69 1007.0
20260906061033 79 168 0.0 0.0 0.00 0.00 0.00 68 1007.0
20260906060533 80 168 0.0 0.0 0.00 0.00 0.00 68 1007.0
20260906060033 80 168 0.0 0.0 0.00 0.00 0.00 68 1007.0
20260906055533 80 168 0.0 0.0 0.00 0.00 0.00 68 1007.2
20260906055033 80 168 0.0 0.0 0.00 0.00 0.00 67 1007.2
20260906054528 80 168 0.0 0.0 0.00 0.00 0.00 68 1007.2
20260906054019 80 168 0.0 0.0 0.00 0.00 0.00 67 1007.3
20260906053513 80 168 0.0 0.0 0.00 0.00 0.00 67 1007.3
20260906053007 80 168 0.0 0.0 0.00 0.00 0.00 67 1007.4
20260906052507 80 168 0.0 0.0 0.00 0.00 0.00 67 1007.3
20260906052007 81 168 0.0 0.0 0.00 0.00 0.00 67 1007.3
20260906051727 81 168 0.0 0.0 0.00 0.00 0.00 66 1007.3
20260906051005 81 168 0.0 0.0 0.00 0.00 0.00 66 1007.3
20260906050503 81 168 0.0 0.0 0.00 0.00 0.00 66 1007.3
20260906050226 81 168 0.0 0.0 0.00 0.00 0.00 66 1007.2
20260906045501 81 168 0.0 0.0 0.00 0.00 0.00 66 1007.2
20260906045000 82 168 0.0 0.0 0.00 0.00 0.00 65 1007.3
20260906044500 82 168 0.0 0.0 0.00 0.00 0.00 64 1007.0
20260906044001 82 168 0.0 0.0 0.00 0.00 0.00 64 1007.0
20260906043725 82 168 0.0 0.0 0.00 0.00 0.00 63 1007.0
20260906043001 83 168 0.0 0.0 0.00 0.00 0.00 62 1007.0
20260906042501 83 168 0.0 0.0 0.00 0.00 0.00 62 1007.0
20260906042223 83 168 0.0 0.0 0.00 0.00 0.00 61 1007.0
20260906041717 83 168 0.0 0.0 0.00 0.00 0.00 60 1007.0
20260906040955 83 168 0.0 0.0 0.00 0.00 0.00 59 1007.0
20260906040455 83 168 0.0 0.0 0.00 0.00 0.00 59 1007.0
20260906035955 84 168 0.0 0.0 0.00 0.00 0.00 58 1007.2
20260906035455 84 168 0.0 0.0 0.00 0.00 0.00 58 1007.3
20260906034954 84 168 0.0 0.0 0.00 0.00 0.00 57 1007.2
20260906034453 84 168 0.0 0.0 0.00 0.00 0.00 57 1007.0
20260906033953 85 168 0.0 0.0 0.00 0.00 0.00 57 1007.2
20260906033723 85 168 0.0 0.0 0.00 0.00 0.00 56 1007.0
20260906032953 85 168 0.0 0.0 0.00 0.00 0.00 56 1007.2
20260906032450 85 168 0.0 0.0 0.00 0.00 0.00 56 1007.0
20260906031949 85 168 0.0 0.0 0.00 0.00 0.00 55 1007.0
20260906031707 85 168 0.0 0.0 0.00 0.00 0.00 54 1006.9
20260906030949 86 168 0.0 0.0 0.00 0.00 0.00 53 1006.8
20260906030448 86 168 0.0 0.0 0.00 0.00 0.00 52 1006.8
20260906025949 86 168 0.0 0.0 0.00 0.00 0.00 52 1006.7
20260906025711 86 168 0.0 0.0 0.00 0.00 0.00 52 1006.6
20260906024949 87 168 0.0 0.0 0.00 0.00 0.00 52 1006.6
20260906024711 87 168 0.0 0.0 0.00 0.00 0.00 52 1006.5
20260906023949 87 168 0.0 0.0 0.00 0.00 0.00 51 1006.5
20260906023449 87 168 0.0 0.0 0.00 0.00 0.00 51 1006.3
20260906023209 87 168 0.0 0.0 0.00 0.00 0.00 51 1006.3
20260906022449 87 168 0.0 0.0 0.00 0.00 0.00 50 1006.2
20260906021949 88 168 0.0 0.0 0.00 0.00 0.00 50 1006.1
20260906021708 88 168 0.0 0.0 0.00 0.00 0.00 50 1006.1
20260906020949 88 168 0.0 0.0 0.00 0.00 0.00 49 1006.1
20260906020448 89 168 0.0 0.0 0.00 0.00 0.00 48 1006.1
20260906020209 89 168 0.0 0.0 0.00 0.00 0.00 48 1006.1
20260906015448 89 168 0.0 0.0 0.00 0.00 0.00 47 1006.0
20260906014952 90 168 0.0 0.0 0.00 0.00 0.00 47 1006.0
20260906014453 90 168 0.0 0.0 0.00 0.00 0.00 46 1005.9
20260906013951 91 168 0.0 0.0 0.00 0.00 0.00 45 1005.8
20260906013449 91 168 0.0 0.0 0.00 0.00 0.00 45 1005.7
20260906012948 91 168 0.0 0.0 0.00 0.00 0.00 45 1005.6
20260906012714 92 168 0.0 0.0 0.00 0.00 0.00 44 1005.5
20260906011946 92 168 0.0 0.0 0.00 0.00 0.00 44 1005.5
20260906011444 93 168 0.0 0.0 0.00 0.00 0.00 43 1005.5
20260906011205 93 168 0.0 0.0 0.00 0.00 0.00 42 1005.6
20260906010441 94 168 0.0 0.0 0.00 0.00 0.00 41 1005.6
20260906005938 94 168 0.0 0.0 0.00 0.00 0.00 40 1005.5
20260906005440 95 168 0.0 0.0 0.00 0.00 0.00 40 1005.5
20260906004934 96 168 0.0 0.0 0.00 0.00 0.00 39 1005.6
20260906004650 96 168 0.0 0.0 0.00 0.00 0.00 38 1005.6
20260906004156 97 168 0.0 0.0 0.00 0.00 0.00 37 1005.6
20260906003658 97 168 0.0 0.0 0.00 0.00 0.00 36 1005.7
20260906003156 98 168 0.0 0.0 0.00 0.00 0.00 36 1005.7
20260906002649 98 168 0.0 0.0 0.00 0.00 0.00 35 1005.7
20260906001918 98 168 0.0 0.0 0.00 0.00 0.00 34 1005.7
20260906001412 98 168 0.0 0.0 0.00 0.00 0.00 35 1005.7
20260906000908 98 168 0.0 0.0 0.00 0.00 0.00 34 1005.7
20260906000407 99 168 0.0 0.0 0.00 0.00 0.00 34 1005.7
20260905235906 99 168 0.0 0.0 0.00 0.00 0.00 34 1005.6
20260905235405 99 168 0.0 0.0 0.00 0.00 0.00 34 1005.6
20260905235123 100 168 0.0 0.0 0.00 0.00 0.00 34 1005.6
20260905234403 100 168 0.0 0.0 0.00 0.00 0.00 34 1005.5
20260905233902 100 168 0.0 0.0 0.00 0.00 0.00 34 1005.5
20260905233403 100 168 0.0 0.0 0.00 0.00 0.00 34 1005.5
20260905233133 100 168 0.0 0.0 0.00 0.00 0.00 34 1005.5
20260905232402 100 168 0.0 0.0 0.00 0.00 0.00 33 1005.4
20260905231901 101 169 0.0 0.0 0.00 0.00 0.00 33 1005.4
20260905231402 101 174 0.0 1.0 0.00 0.00 0.00 32 1005.3
20260905230901 101 173 0.0 1.0 0.00 0.00 0.00 32 1005.4
20260905230401 101 175 0.0 0.0 0.00 0.00 0.00 32 1005.4
20260905225901 101 175 0.0 0.0 0.00 0.00 0.00 31 1005.4
20260905225400 101 175 0.0 0.0 0.00 0.00 0.00 32 1005.4
20260905224901 102 175 0.0 0.0 0.00 0.00 0.00 32 1005.5
20260905224401 102 175 0.0 0.0 0.00 0.00 0.00 32 1005.4
20260905224125 102 176 0.0 3.0 0.00 0.00 0.00 32 1005.4